Time;durP1;ratioP1;P1;durP2;ratioP2;P2;SDS_P1;SDS_P2;PMS_P1;PMS_P2;Temp;Humidity;BMP_temperature;BMP_pressure;BME280_temperature;BME280_humidity;BME280_pressure;Samples;Min_cycle;Max_cycle;Signal;HPM_P1;HPM_P2
2021/04/22 00:02:20;;;;;;;15.50;13.77;;;;;;;;;;4997342;28;20257;-83
2021/04/22 00:04:46;;;;;;;18.50;14.43;;;;;;;;;;4979630;28;20557;-83
2021/04/22 00:07:13;;;;;;;17.23;14.37;;;;;;;;;;4995672;28;20657;-83
2021/04/22 00:09:40;;;;;;;17.63;14.13;;;;;;;;;;4995778;28;20205;-83
2021/04/22 00:12:06;;;;;;;14.53;12.97;;;;;;;;;;4996835;28;20245;-83
2021/04/22 00:14:32;;;;;;;15.97;13.73;;;;;;;;;;4979386;28;20201;-83
2021/04/22 00:16:58;;;;;;;16.13;14.10;;;;;;;;;;4996841;28;20183;-84
2021/04/22 00:19:25;;;;;;;20.67;13.73;;;;;;;;;;4996357;28;20245;-83
2021/04/22 00:21:51;;;;;;;19.43;14.30;;;;;;;;;;4996637;28;20623;-83
2021/04/22 00:24:18;;;;;;;19.70;14.80;;;;;;;;;;4996498;28;20252;-83
2021/04/22 00:26:44;;;;;;;16.10;14.50;;;;;;;;;;4978729;28;20231;-82
2021/04/22 00:29:10;;;;;;;22.73;15.67;;;;;;;;;;4995582;28;20673;-83
2021/04/22 00:31:36;;;;;;;18.93;16.03;;;;;;;;;;4979203;28;20218;-83
2021/04/22 00:34:02;;;;;;;17.93;15.93;;;;;;;;;;4996455;28;20220;-83
2021/04/22 00:36:29;;;;;;;19.33;15.70;;;;;;;;;;4996154;28;20237;-83
2021/04/22 00:38:55;;;;;;;18.93;16.30;;;;;;;;;;4996596;28;20241;-83
2021/04/22 00:41:22;;;;;;;19.60;16.30;;;;;;;;;;4978873;28;20230;-83
2021/04/22 00:43:48;;;;;;;18.47;16.53;;;;;;;;;;4996511;28;20178;-82
2021/04/22 00:46:14;;;;;;;25.33;16.60;;;;;;;;;;4978626;28;20209;-83
2021/04/22 00:48:40;;;;;;;22.37;16.30;;;;;;;;;;4978862;28;20198;-83
2021/04/22 00:51:07;;;;;;;24.17;16.00;;;;;;;;;;4996129;28;20201;-83
2021/04/22 00:53:33;;;;;;;22.70;16.67;;;;;;;;;;4978930;28;20201;-83
2021/04/22 00:56:00;;;;;;;31.17;16.13;;;;;;;;;;4978322;28;20225;-82
2021/04/22 00:58:27;;;;;;;20.57;15.67;;;;;;;;;;4995996;28;20213;-83
2021/04/22 01:00:53;;;;;;;24.13;16.83;;;;;;;;;;4994459;28;20261;-83
2021/04/22 01:03:20;;;;;;;19.50;16.03;;;;;;;;;;4978327;28;20213;-82
2021/04/22 01:05:47;;;;;;;19.03;15.70;;;;;;;;;;4978399;28;20609;-82
2021/04/22 01:08:13;;;;;;;16.90;15.10;;;;;;;;;;4995894;28;20187;-83
2021/04/22 01:10:40;;;;;;;18.60;15.37;;;;;;;;;;4995699;28;20230;-82
2021/04/22 01:13:06;;;;;;;16.37;14.67;;;;;;;;;;4978391;28;20202;-83
2021/04/22 01:15:33;;;;;;;23.27;15.20;;;;;;;;;;4995587;28;20658;-82
2021/04/22 01:18:00;;;;;;;16.87;15.07;;;;;;;;;;4978327;28;20201;-82
2021/04/22 01:20:28;;;;;;;16.90;15.13;;;;;;;;;;4995374;28;20244;-82
2021/04/22 01:22:56;;;;;;;17.80;14.57;;;;;;;;;;4995429;28;20274;-82
2021/04/22 01:25:23;;;;;;;17.53;15.10;;;;;;;;;;4977845;28;20231;-82
2021/04/22 01:27:49;;;;;;;17.87;14.90;;;;;;;;;;4995100;28;20237;-82
2021/04/22 01:30:16;;;;;;;17.10;14.50;;;;;;;;;;4977804;28;20236;-82
2021/04/22 01:32:43;;;;;;;16.87;13.70;;;;;;;;;;4977778;28;20194;-82
2021/04/22 01:35:10;;;;;;;18.90;14.00;;;;;;;;;;4977789;28;20547;-82
2021/04/22 01:37:37;;;;;;;18.07;12.83;;;;;;;;;;4994119;28;20557;-82
2021/04/22 01:40:05;;;;;;;15.07;12.23;;;;;;;;;;4977765;28;20259;-82
2021/04/22 01:42:31;;;;;;;21.00;12.47;;;;;;;;;;4977724;28;20316;-82
2021/04/22 01:44:58;;;;;;;17.97;12.23;;;;;;;;;;4977863;28;20208;-82
2021/04/22 01:47:24;;;;;;;16.50;11.90;;;;;;;;;;4961266;28;20202;-82
2021/04/22 01:49:51;;;;;;;16.60;11.37;;;;;;;;;;4977635;28;20972;-82
2021/04/22 01:52:17;;;;;;;13.43;11.50;;;;;;;;;;4995311;28;20244;-82
2021/04/22 01:54:43;;;;;;;18.87;11.23;;;;;;;;;;4994970;28;20241;-82
2021/04/22 01:57:10;;;;;;;15.20;10.60;;;;;;;;;;4977461;28;20302;-82
2021/04/22 01:59:36;;;;;;;13.77;10.50;;;;;;;;;;4977220;28;20532;-83
2021/04/22 02:02:03;;;;;;;15.87;10.87;;;;;;;;;;4977326;28;20249;-82
2021/04/22 02:04:29;;;;;;;15.07;9.83;;;;;;;;;;4977420;28;20198;-82
2021/04/22 02:06:55;;;;;;;15.00;10.77;;;;;;;;;;4994503;28;20213;-82
2021/04/22 02:09:21;;;;;;;13.27;10.77;;;;;;;;;;4994679;28;20579;-82
2021/04/22 02:11:47;;;;;;;13.00;10.83;;;;;;;;;;4994443;28;20225;-82
2021/04/22 02:14:14;;;;;;;15.07;10.23;;;;;;;;;;4994460;28;20237;-82
2021/04/22 02:16:40;;;;;;;15.90;10.10;;;;;;;;;;4977089;28;20207;-82
2021/04/22 02:19:07;;;;;;;14.10;9.33;;;;;;;;;;4977140;28;20193;-82
2021/04/22 02:21:33;;;;;;;18.20;9.47;;;;;;;;;;4993181;28;20275;-81
2021/04/22 02:23:59;;;;;;;17.43;9.57;;;;;;;;;;4993975;28;20202;-82
2021/04/22 02:26:25;;;;;;;15.27;9.33;;;;;;;;;;4976894;28;20272;-82
2021/04/22 02:28:52;;;;;;;11.47;9.00;;;;;;;;;;4994176;28;20261;-82
2021/04/22 02:31:19;;;;;;;14.83;8.83;;;;;;;;;;4994291;28;20559;-82
2021/04/22 02:33:46;;;;;;;10.43;8.70;;;;;;;;;;4994252;28;20182;-82
2021/04/22 02:36:12;;;;;;;13.13;9.80;;;;;;;;;;4976777;28;20587;-82
2021/04/22 02:38:39;;;;;;;11.40;8.13;;;;;;;;;;4994229;28;20185;-82
2021/04/22 02:41:05;;;;;;;18.93;8.90;;;;;;;;;;4993922;28;20253;-81
2021/04/22 02:43:31;;;;;;;14.93;9.13;;;;;;;;;;4993871;28;20722;-82
2021/04/22 02:45:57;;;;;;;13.33;8.03;;;;;;;;;;4994169;28;20214;-82
2021/04/22 02:48:25;;;;;;;17.93;8.70;;;;;;;;;;4993780;28;20255;-82
2021/04/22 02:50:53;;;;;;;12.87;8.17;;;;;;;;;;4992734;28;20201;-83
2021/04/22 02:53:20;;;;;;;11.07;7.53;;;;;;;;;;4994112;28;20216;-82
2021/04/22 02:55:47;;;;;;;12.70;7.53;;;;;;;;;;4992507;28;20206;-82
2021/04/22 02:58:14;;;;;;;12.03;8.00;;;;;;;;;;4976635;28;20241;-82
2021/04/22 03:00:41;;;;;;;10.67;7.23;;;;;;;;;;4976164;28;20205;-83
2021/04/22 03:03:07;;;;;;;17.43;7.80;;;;;;;;;;4992690;28;20248;-82
2021/04/22 03:05:34;;;;;;;13.17;7.80;;;;;;;;;;4993687;28;20217;-82
2021/04/22 03:08:00;;;;;;;11.10;7.30;;;;;;;;;;4994140;28;20253;-82
2021/04/22 03:10:27;;;;;;;13.20;7.73;;;;;;;;;;4976142;28;20201;-82
2021/04/22 03:12:53;;;;;;;11.57;7.30;;;;;;;;;;4976549;28;20206;-82
2021/04/22 03:15:20;;;;;;;15.73;6.90;;;;;;;;;;4976303;28;20236;-82
2021/04/22 03:17:46;;;;;;;11.03;6.47;;;;;;;;;;4994211;28;20641;-82
2021/04/22 03:20:13;;;;;;;14.53;7.50;;;;;;;;;;4993796;28;20808;-82
2021/04/22 03:22:40;;;;;;;14.57;6.60;;;;;;;;;;4993826;28;20233;-82
2021/04/22 03:25:08;;;;;;;12.07;7.00;;;;;;;;;;4979180;28;20193;-82
2021/04/22 03:27:34;;;;;;;14.57;6.63;;;;;;;;;;4997744;28;20240;-83
2021/04/22 03:30:01;;;;;;;11.17;5.97;;;;;;;;;;4997577;28;20210;-81
2021/04/22 03:32:27;;;;;;;9.27;5.93;;;;;;;;;;4997566;28;20202;-82
2021/04/22 03:34:53;;;;;;;14.10;6.40;;;;;;;;;;4997471;28;20209;-82
2021/04/22 03:37:19;;;;;;;9.83;5.77;;;;;;;;;;4997463;28;20225;-81
2021/04/22 03:39:46;;;;;;;9.93;5.70;;;;;;;;;;4979798;28;20228;-82
2021/04/22 03:42:16;;;;;;;10.23;5.90;;;;;;;;;;4980027;28;20311;-83
2021/04/22 03:44:42;;;;;;;9.87;5.93;;;;;;;;;;4997143;28;20202;-83
2021/04/22 03:47:10;;;;;;;12.47;5.47;;;;;;;;;;4996103;28;20225;-81
2021/04/22 03:49:36;;;;;;;9.50;5.53;;;;;;;;;;4997042;28;20239;-83
2021/04/22 03:52:02;;;;;;;9.93;5.67;;;;;;;;;;4979861;28;20341;-82
2021/04/22 03:54:28;;;;;;;10.33;5.50;;;;;;;;;;4997225;28;20242;-83
2021/04/22 03:56:55;;;;;;;16.77;5.30;;;;;;;;;;4979535;28;20205;-82
2021/04/22 03:59:22;;;;;;;9.83;5.60;;;;;;;;;;4995790;28;20248;-83
2021/04/22 04:01:48;;;;;;;10.37;5.23;;;;;;;;;;4996606;28;20740;-82
2021/04/22 04:04:14;;;;;;;9.50;5.30;;;;;;;;;;4996751;28;20206;-81
2021/04/22 04:06:40;;;;;;;10.60;5.20;;;;;;;;;;4979009;28;20205;-82
2021/04/22 04:09:06;;;;;;;10.57;5.10;;;;;;;;;;4979456;28;20565;-81
2021/04/22 04:11:33;;;;;;;11.33;4.70;;;;;;;;;;4995633;28;20262;-83
2021/04/22 04:14:02;;;;;;;11.77;4.90;;;;;;;;;;4997044;28;20201;-85
2021/04/22 04:16:28;;;;;;;10.30;5.07;;;;;;;;;;4979590;28;20198;-83
2021/04/22 04:18:55;;;;;;;23.47;6.13;;;;;;;;;;4979151;28;20260;-82
2021/04/22 04:21:21;;;;;;;14.03;5.30;;;;;;;;;;4979084;28;20249;-83
2021/04/22 04:23:47;;;;;;;12.20;5.37;;;;;;;;;;4995554;28;20248;-82
2021/04/22 04:26:13;;;;;;;13.67;4.60;;;;;;;;;;4979266;28;20237;-83
2021/04/22 04:28:39;;;;;;;12.50;4.73;;;;;;;;;;4995929;28;20233;-83
2021/04/22 04:31:06;;;;;;;13.43;5.23;;;;;;;;;;4996587;28;20170;-83
2021/04/22 04:33:33;;;;;;;8.57;4.13;;;;;;;;;;4996726;28;20188;-84
2021/04/22 04:35:59;;;;;;;10.83;4.23;;;;;;;;;;4996576;28;20213;-83
2021/04/22 04:38:25;;;;;;;12.30;5.00;;;;;;;;;;4996358;28;20222;-86
2021/04/22 04:40:51;;;;;;;7.87;4.03;;;;;;;;;;4979281;28;20201;-81
2021/04/22 04:43:17;;;;;;;9.97;3.90;;;;;;;;;;4996357;28;20257;-83
2021/04/22 04:45:43;;;;;;;8.00;3.97;;;;;;;;;;4995165;28;20658;-83
2021/04/22 04:48:11;;;;;;;9.10;4.03;;;;;;;;;;4994896;28;20219;-83
2021/04/22 04:50:37;;;;;;;8.60;4.40;;;;;;;;;;4978296;28;20740;-83
2021/04/22 04:53:03;;;;;;;7.47;3.60;;;;;;;;;;4995159;28;20205;-83
2021/04/22 04:55:30;;;;;;;8.40;3.80;;;;;;;;;;4996052;28;20213;-83
2021/04/22 04:57:56;;;;;;;8.33;3.60;;;;;;;;;;4994906;28;20194;-83
2021/04/22 05:00:22;;;;;;;7.80;3.30;;;;;;;;;;4978170;28;20206;-81
2021/04/22 05:02:48;;;;;;;7.50;3.70;;;;;;;;;;4995674;28;20264;-83
2021/04/22 05:05:16;;;;;;;6.73;3.63;;;;;;;;;;4995407;28;20233;-82
2021/04/22 05:07:43;;;;;;;8.37;3.50;;;;;;;;;;4996214;28;20221;-85
2021/04/22 05:10:09;;;;;;;8.53;3.67;;;;;;;;;;4996180;28;20174;-85
2021/04/22 05:12:36;;;;;;;12.13;3.70;;;;;;;;;;4996224;28;20232;-80
2021/04/22 05:15:02;;;;;;;9.60;3.50;;;;;;;;;;4978670;28;20197;-85
2021/04/22 05:17:28;;;;;;;10.87;3.70;;;;;;;;;;4995908;28;20700;-84
2021/04/22 05:19:55;;;;;;;8.90;3.27;;;;;;;;;;4978331;28;20209;-84
2021/04/22 05:22:22;;;;;;;6.80;3.37;;;;;;;;;;4995563;28;20253;-87
2021/04/22 05:24:48;;;;;;;7.73;3.60;;;;;;;;;;4994108;28;20977;-85
2021/04/22 05:27:14;;;;;;;11.67;3.33;;;;;;;;;;4993745;28;20237;-84
2021/04/22 05:29:40;;;;;;;10.27;3.23;;;;;;;;;;4993289;28;20209;-81
2021/04/22 05:32:07;;;;;;;9.27;3.00;;;;;;;;;;4976921;28;20244;-83
2021/04/22 05:34:33;;;;;;;6.53;3.30;;;;;;;;;;4994378;28;20209;-81
2021/04/22 05:36:59;;;;;;;7.67;2.87;;;;;;;;;;4976510;28;20225;-83
2021/04/22 05:39:26;;;;;;;10.70;3.13;;;;;;;;;;4976615;28;20221;-84
2021/04/22 05:41:55;;;;;;;7.53;3.27;;;;;;;;;;4994647;28;20222;-82
2021/04/22 05:44:21;;;;;;;9.47;3.17;;;;;;;;;;4977416;28;20189;-87
2021/04/22 05:46:47;;;;;;;7.70;2.80;;;;;;;;;;4976259;28;20228;-83
2021/04/22 05:49:13;;;;;;;8.20;2.77;;;;;;;;;;4994663;28;20212;-82
2021/04/22 05:51:41;;;;;;;9.57;2.97;;;;;;;;;;4994319;28;20209;-82
2021/04/22 05:54:08;;;;;;;7.93;2.67;;;;;;;;;;4992487;28;20586;-82
2021/04/22 05:56:35;;;;;;;10.07;2.95;;;;;;;;;;4976645;28;21559;-83
2021/04/22 05:59:02;;;;;;;6.50;2.90;;;;;;;;;;4994362;28;20182;-83
2021/04/22 06:01:29;;;;;;;8.27;3.20;;;;;;;;;;4992839;28;20190;-82
2021/04/22 06:03:55;;;;;;;7.53;2.97;;;;;;;;;;4976701;28;20240;-82
2021/04/22 06:06:21;;;;;;;8.93;3.67;;;;;;;;;;4992329;28;20206;-83
2021/04/22 06:08:47;;;;;;;11.00;3.10;;;;;;;;;;4994048;28;20178;-83
2021/04/22 06:11:13;;;;;;;5.87;3.20;;;;;;;;;;4992575;28;20214;-84
2021/04/22 06:13:41;;;;;;;7.13;2.80;;;;;;;;;;4976774;28;20197;-82
2021/04/22 06:16:07;;;;;;;9.57;3.07;;;;;;;;;;4994141;28;20174;-84
2021/04/22 06:18:33;;;;;;;10.13;2.87;;;;;;;;;;4975949;28;20205;-83
2021/04/22 06:20:59;;;;;;;13.47;2.87;;;;;;;;;;4992662;28;20198;-84
2021/04/22 06:23:26;;;;;;;10.90;3.20;;;;;;;;;;4976784;28;20705;-86
2021/04/22 06:25:52;;;;;;;11.53;2.87;;;;;;;;;;4975831;28;20226;-83
2021/04/22 06:28:19;;;;;;;6.37;2.90;;;;;;;;;;4968773;28;589200;-83
2021/04/22 06:30:46;;;;;;;11.13;3.33;;;;;;;;;;4974010;28;20213;-84
2021/04/22 06:33:12;;;;;;;7.73;2.80;;;;;;;;;;4975326;28;20175;-82
2021/04/22 06:35:38;;;;;;;6.97;2.53;;;;;;;;;;4973987;28;20249;-83
2021/04/22 06:38:05;;;;;;;12.77;3.03;;;;;;;;;;4973610;28;20206;-85
2021/04/22 06:40:31;;;;;;;8.60;2.47;;;;;;;;;;4989937;28;20234;-84
2021/04/22 06:42:57;;;;;;;9.80;3.03;;;;;;;;;;4975200;28;20250;-83
2021/04/22 06:45:23;;;;;;;8.43;2.23;;;;;;;;;;4990259;28;20237;-83
2021/04/22 06:47:51;;;;;;;10.23;2.63;;;;;;;;;;4975002;28;20242;-83
2021/04/22 06:50:18;;;;;;;12.80;2.80;;;;;;;;;;4974999;28;20744;-85
2021/04/22 06:52:44;;;;;;;14.03;2.53;;;;;;;;;;4973677;28;20206;-82
2021/04/22 06:55:13;;;;;;;14.60;2.90;;;;;;;;;;4989481;28;20666;-85
2021/04/22 06:57:39;;;;;;;12.57;2.73;;;;;;;;;;4989514;28;20209;-83
2021/04/22 07:00:07;;;;;;;4.67;2.10;;;;;;;;;;4973006;28;20239;-83
2021/04/22 07:02:33;;;;;;;13.67;3.37;;;;;;;;;;4973686;28;20265;-82
2021/04/22 07:05:00;;;;;;;8.73;2.87;;;;;;;;;;4974717;28;20222;-83
2021/04/22 07:07:26;;;;;;;9.80;2.93;;;;;;;;;;4989793;28;20198;-83
2021/04/22 07:09:52;;;;;;;10.83;3.00;;;;;;;;;;4989408;28;20302;-83
2021/04/22 07:12:18;;;;;;;7.80;3.17;;;;;;;;;;4989101;28;20224;-83
2021/04/22 07:14:45;;;;;;;14.80;2.87;;;;;;;;;;4973021;28;20713;-84
2021/04/22 07:17:11;;;;;;;10.17;3.00;;;;;;;;;;4973557;28;20195;-83
2021/04/22 07:19:38;;;;;;;8.33;2.93;;;;;;;;;;4975064;28;20253;-81
2021/04/22 07:22:05;;;;;;;7.27;2.80;;;;;;;;;;4973779;28;20234;-82
2021/04/22 07:24:31;;;;;;;9.60;3.40;;;;;;;;;;4974568;28;20183;-84
2021/04/22 07:26:58;;;;;;;13.00;3.10;;;;;;;;;;4976401;28;20241;-84
2021/04/22 07:29:24;;;;;;;8.43;2.77;;;;;;;;;;4994510;28;20240;-82
2021/04/22 07:31:50;;;;;;;7.10;2.97;;;;;;;;;;4976526;28;20211;-84
2021/04/22 07:34:16;;;;;;;9.53;2.80;;;;;;;;;;4992727;28;20198;-84
2021/04/22 07:36:42;;;;;;;14.47;3.47;;;;;;;;;;4976672;28;20194;-83
2021/04/22 07:39:10;;;;;;;6.70;2.97;;;;;;;;;;4994077;28;20214;-82
2021/04/22 07:41:36;;;;;;;9.33;3.03;;;;;;;;;;4992651;28;20225;-83
2021/04/22 07:44:03;;;;;;;9.87;3.33;;;;;;;;;;4993644;28;20241;-83
2021/04/22 07:46:29;;;;;;;9.20;3.23;;;;;;;;;;4992388;28;20221;-84
2021/04/22 07:48:55;;;;;;;10.67;2.80;;;;;;;;;;4991930;28;20201;-83
2021/04/22 07:51:21;;;;;;;9.40;2.60;;;;;;;;;;4992673;28;20720;-82
2021/04/22 07:53:48;;;;;;;7.57;2.83;;;;;;;;;;4993494;28;20237;-82
2021/04/22 07:56:15;;;;;;;4.60;2.70;;;;;;;;;;4991932;28;20205;-84
2021/04/22 07:58:41;;;;;;;9.23;3.07;;;;;;;;;;4976098;28;20257;-83
2021/04/22 08:01:07;;;;;;;9.77;3.20;;;;;;;;;;4975749;28;20225;-83
2021/04/22 08:03:33;;;;;;;5.63;2.83;;;;;;;;;;4992594;28;20929;-84
2021/04/22 08:06:00;;;;;;;9.50;3.13;;;;;;;;;;4992782;28;20232;-83
2021/04/22 08:08:27;;;;;;;12.30;3.67;;;;;;;;;;4993790;28;20252;-84
2021/04/22 08:10:55;;;;;;;10.17;3.50;;;;;;;;;;4995180;28;20205;-82
2021/04/22 08:13:22;;;;;;;8.50;3.20;;;;;;;;;;4995897;28;20201;-85
2021/04/22 08:15:49;;;;;;;10.63;3.50;;;;;;;;;;4979709;28;20252;-83
2021/04/22 08:18:16;;;;;;;9.80;3.13;;;;;;;;;;4979436;28;20198;-81
2021/04/22 08:20:42;;;;;;;12.40;3.47;;;;;;;;;;4979277;28;20543;-82
2021/04/22 08:23:09;;;;;;;14.17;4.20;;;;;;;;;;4995393;28;20240;-82
2021/04/22 08:25:37;;;;;;;11.20;3.90;;;;;;;;;;4996731;28;20241;-84
2021/04/22 08:28:04;;;;;;;8.53;3.97;;;;;;;;;;4996751;28;20260;-81
2021/04/22 08:30:33;;;;;;;10.83;3.53;;;;;;;;;;4994995;28;20213;-81
2021/04/22 08:33:00;;;;;;;16.13;4.07;;;;;;;;;;4978762;28;20662;-80
2021/04/22 08:35:26;;;;;;;11.87;3.80;;;;;;;;;;4978842;28;20256;-80
2021/04/22 08:37:52;;;;;;;13.10;3.50;;;;;;;;;;4979129;28;20194;-79
2021/04/22 08:40:19;;;;;;;16.43;3.37;;;;;;;;;;4978395;28;20205;-81
2021/04/22 08:42:46;;;;;;;10.93;3.67;;;;;;;;;;4995026;28;20242;-82
2021/04/22 08:45:13;;;;;;;8.97;3.60;;;;;;;;;;4995141;28;20237;-81
2021/04/22 08:47:42;;;;;;;9.93;3.60;;;;;;;;;;4995070;28;20201;-81
2021/04/22 08:50:10;;;;;;;8.97;3.10;;;;;;;;;;4978667;28;20198;-81
2021/04/22 08:52:36;;;;;;;10.37;3.90;;;;;;;;;;4994435;28;20218;-82
2021/04/22 08:55:04;;;;;;;12.90;3.93;;;;;;;;;;4994852;28;20209;-81
2021/04/22 08:57:30;;;;;;;14.23;4.23;;;;;;;;;;4994820;28;20198;-83
2021/04/22 08:59:56;;;;;;;12.03;3.97;;;;;;;;;;4977782;28;20751;-82
2021/04/22 09:02:23;;;;;;;11.47;3.50;;;;;;;;;;4978263;28;20239;-81
2021/04/22 09:04:50;;;;;;;15.23;4.10;;;;;;;;;;4994556;28;20545;-81
2021/04/22 09:07:16;;;;;;;10.03;3.60;;;;;;;;;;4994355;28;20661;-80
2021/04/22 09:09:43;;;;;;;11.87;3.70;;;;;;;;;;4995926;28;20217;-81
2021/04/22 09:12:16;;;;;;;8.00;3.83;;;;;;;;;;4994670;28;20201;-81
2021/04/22 09:14:52;;;;;;;11.60;4.27;;;;;;;;;;4995845;28;20182;-80
2021/04/22 09:17:19;;;;;;;14.63;4.17;;;;;;;;;;4978167;28;20545;-81
2021/04/22 09:19:45;;;;;;;14.73;4.30;;;;;;;;;;4978152;28;20194;-80
2021/04/22 09:22:12;;;;;;;10.00;3.80;;;;;;;;;;4993283;28;20212;-81
2021/04/22 09:24:38;;;;;;;8.60;3.80;;;;;;;;;;4994983;28;20241;-80
2021/04/22 09:27:09;;;;;;;13.07;4.00;;;;;;;;;;4994844;28;20245;-81
2021/04/22 09:29:36;;;;;;;13.23;3.47;;;;;;;;;;4978356;28;20213;-83
2021/04/22 09:32:07;;;;;;;12.97;3.77;;;;;;;;;;4994073;28;20210;-83
2021/04/22 09:34:33;;;;;;;7.43;3.17;;;;;;;;;;4995388;28;20587;-82
2021/04/22 09:36:59;;;;;;;9.50;3.73;;;;;;;;;;4995037;28;20221;-80
2021/04/22 09:39:27;;;;;;;10.50;3.80;;;;;;;;;;4977270;28;20609;-80
2021/04/22 09:41:55;;;;;;;9.40;3.83;;;;;;;;;;4977718;28;20201;-80
2021/04/22 09:44:21;;;;;;;9.43;4.00;;;;;;;;;;4993617;28;20611;-82
2021/04/22 09:46:48;;;;;;;10.67;3.67;;;;;;;;;;4993720;28;20194;-81
2021/04/22 09:49:16;;;;;;;12.33;3.60;;;;;;;;;;4995026;28;20209;-82
2021/04/22 09:51:44;;;;;;;6.83;3.10;;;;;;;;;;4977347;28;20206;-81
2021/04/22 09:54:12;;;;;;;12.30;3.97;;;;;;;;;;4977436;28;20216;-81
2021/04/22 09:56:40;;;;;;;7.27;3.67;;;;;;;;;;4993254;28;20553;-81
2021/04/22 09:59:07;;;;;;;11.63;3.83;;;;;;;;;;4976885;28;20205;-86
2021/04/22 10:01:34;;;;;;;6.47;3.17;;;;;;;;;;4977379;28;20721;-83
2021/04/22 10:04:00;;;;;;;10.03;3.57;;;;;;;;;;4993507;28;20307;-82
2021/04/22 10:06:36;;;;;;;10.37;4.20;;;;;;;;;;4993239;28;20226;-84
2021/04/22 10:09:02;;;;;;;8.23;3.87;;;;;;;;;;4994496;28;20213;-88
2021/04/22 10:11:28;;;;;;;7.67;3.20;;;;;;;;;;4977594;28;20197;-85
2021/04/22 10:13:56;;;;;;;7.87;3.50;;;;;;;;;;4994519;28;20248;-86
2021/04/22 10:16:30;;;;;;;8.50;3.20;;;;;;;;;;4977571;28;20225;-84
2021/04/22 10:18:57;;;;;;;9.20;3.70;;;;;;;;;;4977374;28;20264;-84
2021/04/22 10:21:24;;;;;;;7.93;3.43;;;;;;;;;;4976784;28;20202;-81
2021/04/22 10:23:51;;;;;;;6.47;3.07;;;;;;;;;;4976840;28;20248;-82
2021/04/22 10:26:17;;;;;;;7.63;2.87;;;;;;;;;;4976103;28;20233;-83
2021/04/22 10:28:44;;;;;;;8.73;3.87;;;;;;;;;;4989591;28;20235;-82
2021/04/22 10:31:11;;;;;;;9.03;2.93;;;;;;;;;;4974978;28;20741;-84
2021/04/22 10:33:37;;;;;;;9.07;2.90;;;;;;;;;;4989334;28;20269;-90
2021/04/22 10:36:04;;;;;;;6.10;3.00;;;;;;;;;;4990266;28;20257;-86
2021/04/22 10:38:30;;;;;;;10.83;3.20;;;;;;;;;;4990575;28;20253;-85
2021/04/22 10:40:57;;;;;;;7.67;2.93;;;;;;;;;;4975777;28;20222;-87
2021/04/22 10:43:25;;;;;;;9.90;3.20;;;;;;;;;;4975101;28;20717;-84
2021/04/22 10:45:51;;;;;;;4.90;2.70;;;;;;;;;;4989848;28;20650;-83
2021/04/22 10:48:19;;;;;;;6.17;2.77;;;;;;;;;;4975224;28;20185;-84
2021/04/22 10:50:46;;;;;;;9.60;2.80;;;;;;;;;;4989797;28;20211;-84
2021/04/22 10:53:13;;;;;;;6.43;2.70;;;;;;;;;;4989181;28;20685;-80
2021/04/22 10:55:47;;;;;;;8.50;2.80;;;;;;;;;;4989848;28;20224;-82
2021/04/22 10:58:16;;;;;;;12.13;3.20;;;;;;;;;;4989549;28;20240;-83
2021/04/22 11:00:46;;;;;;;9.90;3.33;;;;;;;;;;4974993;28;20242;-85
2021/04/22 11:03:23;;;;;;;13.17;3.37;;;;;;;;;;4989241;28;20301;-83
2021/04/22 11:05:53;;;;;;;8.33;3.33;;;;;;;;;;4989621;28;20202;-81
2021/04/22 11:08:29;;;;;;;8.17;3.20;;;;;;;;;;4974690;28;20214;-83
2021/04/22 11:10:56;;;;;;;8.43;2.77;;;;;;;;;;4974592;28;20214;-82
2021/04/22 11:13:27;;;;;;;7.90;3.33;;;;;;;;;;4989146;28;20558;-81
2021/04/22 11:16:03;;;;;;;6.17;3.27;;;;;;;;;;4989082;28;20202;-82
2021/04/22 11:18:34;;;;;;;7.60;2.90;;;;;;;;;;4989603;28;20226;-82
2021/04/22 11:21:01;;;;;;;9.27;3.47;;;;;;;;;;4989981;28;20198;-83
2021/04/22 11:23:38;;;;;;;8.10;3.70;;;;;;;;;;4988989;28;20308;-80
2021/04/22 11:26:04;;;;;;;12.50;3.00;;;;;;;;;;4989025;28;20226;-80
2021/04/22 11:28:31;;;;;;;5.83;3.00;;;;;;;;;;4991868;28;20249;-81
2021/04/22 11:31:07;;;;;;;6.73;3.10;;;;;;;;;;4976081;28;20284;-81
2021/04/22 11:33:34;;;;;;;8.40;3.30;;;;;;;;;;4975783;28;20201;-82
2021/04/22 11:36:09;;;;;;;12.93;3.10;;;;;;;;;;4992654;28;20228;-83
2021/04/22 11:38:36;;;;;;;7.70;3.83;;;;;;;;;;4976357;28;20206;-82
2021/04/22 11:41:05;;;;;;;5.13;2.80;;;;;;;;;;4992322;28;20194;-82
2021/04/22 11:43:32;;;;;;;7.57;3.23;;;;;;;;;;4976113;28;20222;-83
2021/04/22 11:45:59;;;;;;;7.23;3.00;;;;;;;;;;4978581;28;20205;-83
2021/04/22 11:48:36;;;;;;;7.27;3.10;;;;;;;;;;4996176;28;20193;-81
2021/04/22 11:51:04;;;;;;;6.73;2.77;;;;;;;;;;4995870;28;20206;-81
2021/04/22 11:53:34;;;;;;;7.10;2.87;;;;;;;;;;4995703;28;20225;-83
2021/04/22 11:56:01;;;;;;;4.87;2.50;;;;;;;;;;4995583;28;20210;-82
2021/04/22 11:58:28;;;;;;;7.80;2.93;;;;;;;;;;4997210;28;20657;-82
2021/04/22 12:00:55;;;;;;;6.13;2.70;;;;;;;;;;4995831;28;20214;-82
2021/04/22 12:03:23;;;;;;;7.13;3.27;;;;;;;;;;4979633;28;20575;-81
2021/04/22 12:05:50;;;;;;;7.93;2.70;;;;;;;;;;4979312;28;20205;-83
2021/04/22 12:08:17;;;;;;;9.73;3.00;;;;;;;;;;4979577;28;20209;-81
2021/04/22 12:10:46;;;;;;;11.57;3.40;;;;;;;;;;4979402;28;20210;-83
2021/04/22 12:13:14;;;;;;;10.37;3.20;;;;;;;;;;4979134;28;20240;-81
2021/04/22 12:15:41;;;;;;;9.80;2.93;;;;;;;;;;4995522;28;20213;-81
2021/04/22 12:18:08;;;;;;;8.77;3.03;;;;;;;;;;4979261;28;20206;-81
2021/04/22 12:20:35;;;;;;;6.97;3.43;;;;;;;;;;4996212;28;20213;-81
2021/04/22 12:23:02;;;;;;;6.87;3.00;;;;;;;;;;4996804;28;20261;-83
2021/04/22 12:25:29;;;;;;;8.17;3.50;;;;;;;;;;4978897;28;20594;-82
2021/04/22 12:27:56;;;;;;;9.37;3.30;;;;;;;;;;4979027;28;20300;-81
2021/04/22 12:30:25;;;;;;;7.90;3.47;;;;;;;;;;4979103;28;20233;-83
2021/04/22 12:32:53;;;;;;;8.57;3.23;;;;;;;;;;4996451;28;20193;-81
2021/04/22 12:35:20;;;;;;;10.57;3.10;;;;;;;;;;4994985;28;20205;-83
2021/04/22 12:37:47;;;;;;;10.27;3.40;;;;;;;;;;4978939;28;20253;-81
2021/04/22 12:40:14;;;;;;;7.50;3.20;;;;;;;;;;4979120;28;20194;-81
2021/04/22 12:42:41;;;;;;;10.93;3.33;;;;;;;;;;4978358;28;20206;-81
2021/04/22 12:45:09;;;;;;;12.13;3.67;;;;;;;;;;4994915;28;20253;-81
2021/04/22 12:47:37;;;;;;;7.40;3.30;;;;;;;;;;4994688;28;20213;-83
2021/04/22 12:50:04;;;;;;;8.77;3.13;;;;;;;;;;4994984;28;20190;-82
2021/04/22 12:52:30;;;;;;;6.70;2.97;;;;;;;;;;4978689;28;20194;-82
2021/04/22 12:54:58;;;;;;;10.87;3.77;;;;;;;;;;4996174;28;20201;-80
2021/04/22 12:57:24;;;;;;;5.83;2.80;;;;;;;;;;4996276;28;20209;-82
2021/04/22 12:59:53;;;;;;;7.40;3.43;;;;;;;;;;4978653;28;20205;-80
2021/04/22 13:02:21;;;;;;;7.33;3.43;;;;;;;;;;4978677;28;20193;-77
2021/04/22 13:04:58;;;;;;;7.13;3.60;;;;;;;;;;4993803;28;20857;-77
2021/04/22 13:07:28;;;;;;;10.60;2.90;;;;;;;;;;4978011;28;20233;-77
2021/04/22 13:09:54;;;;;;;8.63;3.20;;;;;;;;;;4995906;28;20690;-76
2021/04/22 13:12:21;;;;;;;10.57;3.70;;;;;;;;;;4978080;28;20232;-76
2021/04/22 13:14:48;;;;;;;6.70;3.40;;;;;;;;;;4994296;28;20202;-77
2021/04/22 13:17:15;;;;;;;8.43;3.30;;;;;;;;;;4977626;28;20202;-78
2021/04/22 13:19:43;;;;;;;8.17;3.33;;;;;;;;;;4978167;28;20217;-78
2021/04/22 13:22:12;;;;;;;9.77;3.50;;;;;;;;;;4978170;28;20210;-76
2021/04/22 13:24:40;;;;;;;12.03;3.83;;;;;;;;;;4993938;28;20252;-77
2021/04/22 13:27:07;;;;;;;9.80;3.90;;;;;;;;;;4977673;28;20234;-75
2021/04/22 13:29:42;;;;;;;7.67;3.57;;;;;;;;;;4995298;28;20243;-76
2021/04/22 13:32:08;;;;;;;6.90;2.87;;;;;;;;;;4994214;28;20646;-75
2021/04/22 13:34:39;;;;;;;9.07;3.67;;;;;;;;;;4995147;28;20248;-76
2021/04/22 13:37:05;;;;;;;9.77;3.20;;;;;;;;;;4977826;28;20217;-75
2021/04/22 13:39:32;;;;;;;8.33;3.20;;;;;;;;;;4995251;28;20214;-77
2021/04/22 13:41:58;;;;;;;7.27;3.20;;;;;;;;;;4995005;28;20209;-77
2021/04/22 13:44:26;;;;;;;5.50;2.97;;;;;;;;;;4994450;28;20760;-76
2021/04/22 13:46:53;;;;;;;9.23;3.75;;;;;;;;;;4977371;28;20673;-79
2021/04/22 13:49:21;;;;;;;7.10;2.95;;;;;;;;;;4994938;28;20201;-79
2021/04/22 13:51:48;;;;;;;5.22;3.47;;;;;;;;;;4993402;28;20590;-78
2021/04/22 13:54:16;;;;;;;5.43;3.10;;;;;;;;;;4993214;28;20248;-77
2021/04/22 13:56:44;;;;;;;7.43;3.45;;;;;;;;;;4993635;28;20732;-77
2021/04/22 13:59:11;;;;;;;7.70;3.40;;;;;;;;;;4993049;28;20548;-77
2021/04/22 14:01:37;;;;;;;8.35;3.30;;;;;;;;;;4994240;28;20241;-77
2021/04/22 14:04:04;;;;;;;7.03;3.25;;;;;;;;;;4993016;28;20249;-77
2021/04/22 14:06:34;;;;;;;6.45;3.08;;;;;;;;;;4994503;28;20248;-78
2021/04/22 14:09:01;;;;;;;8.35;3.80;;;;;;;;;;4976729;28;20766;-78
2021/04/22 14:11:34;;;;;;;8.13;3.13;;;;;;;;;;4977073;28;20642;-77
2021/04/22 14:14:00;;;;;;;6.10;3.20;;;;;;;;;;4993349;28;20245;-78
2021/04/22 14:16:26;;;;;;;5.03;3.08;;;;;;;;;;4976881;28;20213;-78
2021/04/22 14:18:53;;;;;;;6.68;2.95;;;;;;;;;;4976900;28;20228;-78
2021/04/22 14:21:19;;;;;;;8.52;3.42;;;;;;;;;;4994333;28;20170;-78
2021/04/22 14:23:45;;;;;;;8.70;3.70;;;;;;;;;;4992817;28;20214;-78
2021/04/22 14:26:12;;;;;;;8.15;3.67;;;;;;;;;;4976307;28;20840;-78
2021/04/22 14:28:39;;;;;;;8.60;3.75;;;;;;;;;;4989804;28;20776;-78
2021/04/22 14:31:05;;;;;;;9.05;3.63;;;;;;;;;;4973599;28;20211;-78
2021/04/22 14:33:31;;;;;;;6.68;3.47;;;;;;;;;;4973393;28;20191;-78